Time;durP1;ratioP1;P1;durP2;ratioP2;P2;SDS_P1;SDS_P2;PMS_P1;PMS_P2;Temp;Humidity;BMP_temperature;BMP_pressure;BME280_temperature;BME280_humidity;BME280_pressure;Samples;Min_cycle;Max_cycle;Signal;HPM_P1;HPM_P2
2021/12/21 00:00:22;;;;;;;22.60;9.65;;;0.70;99.90;;;;;;4989399;28;20065;-63
2021/12/21 00:02:52;;;;;;;24.05;9.63;;;0.70;99.90;;;;;;4991119;28;20044;-63
2021/12/21 00:05:24;;;;;;;24.85;9.95;;;0.60;99.90;;;;;;4996964;28;20419;-65
2021/12/21 00:07:52;;;;;;;30.83;9.82;;;0.60;99.90;;;;;;4990242;28;20026;-63
2021/12/21 00:10:20;;;;;;;23.15;10.32;;;0.50;99.90;;;;;;4989154;28;20057;-65
2021/12/21 00:13:02;;;;;;;24.58;9.50;;;0.50;99.90;;;;;;4989957;28;20050;-63
2021/12/21 00:18:31;;;;;;;24.45;10.02;;;0.50;99.90;;;;;;4995319;28;20038;-65
2021/12/21 00:23:42;;;;;;;27.00;10.05;;;0.40;99.90;;;;;;4990748;28;20029;-63
2021/12/21 00:26:10;;;;;;;29.35;10.38;;;0.50;99.90;;;;;;4991333;28;20022;-64
2021/12/21 00:28:55;;;;;;;30.23;9.93;;;0.50;99.90;;;;;;4990702;28;20495;-63
2021/12/21 00:31:22;;;;;;;25.05;9.30;;;0.50;99.90;;;;;;4988236;28;20539;-64
2021/12/21 00:33:48;;;;;;;25.58;10.45;;;0.50;99.90;;;;;;4987877;28;20160;-64
2021/12/21 00:36:17;;;;;;;20.05;9.48;;;0.40;99.90;;;;;;4991247;28;20076;-64
2021/12/21 00:38:44;;;;;;;22.25;9.73;;;0.50;99.90;;;;;;4990469;28;20041;-64
2021/12/21 00:41:10;;;;;;;18.17;8.48;;;0.50;99.90;;;;;;4990321;28;20107;-63
2021/12/21 00:43:36;;;;;;;20.02;8.88;;;0.50;99.90;;;;;;4990236;28;20038;-63
2021/12/21 00:46:03;;;;;;;23.85;9.70;;;0.50;99.90;;;;;;4993659;28;20040;-64
2021/12/21 00:48:31;;;;;;;26.90;10.05;;;0.50;99.90;;;;;;5000508;28;20030;-63
2021/12/21 00:50:58;;;;;;;26.48;9.50;;;0.50;99.90;;;;;;4999816;28;20049;-63
2021/12/21 00:53:25;;;;;;;20.90;9.07;;;0.50;99.90;;;;;;5000732;28;20033;-62
2021/12/21 00:55:51;;;;;;;25.30;9.10;;;0.50;99.90;;;;;;4993726;28;20042;-63
2021/12/21 00:58:16;;;;;;;30.42;10.18;;;0.50;99.90;;;;;;4993012;28;20056;-64
2021/12/21 01:00:43;;;;;;;23.50;10.73;;;0.50;99.90;;;;;;4988654;28;20057;-63
2021/12/21 01:03:12;;;;;;;25.65;9.95;;;0.40;99.90;;;;;;4991212;28;20038;-62
2021/12/21 01:08:11;;;;;;;31.13;11.15;;;0.30;99.90;;;;;;4997119;28;20109;-62
2021/12/21 01:14:02;;;;;;;28.23;10.25;;;0.30;99.90;;;;;;4992987;28;20057;-64
2021/12/21 01:16:31;;;;;;;20.73;9.95;;;0.30;99.90;;;;;;4990558;28;20042;-64
2021/12/21 01:21:29;;;;;;;28.70;11.18;;;0.30;99.90;;;;;;5009060;28;20030;-63
2021/12/21 01:35:12;;;;;;;28.48;9.80;;;0.10;99.90;;;;;;4992417;28;20045;-63
2021/12/21 01:37:16;;;;;;;20.98;9.10;;;0.20;99.90;;;;;;4993580;28;20101;-62
2021/12/21 01:49:58;;;;;;;23.67;9.20;;;0.30;99.90;;;;;;5010047;28;20091;-62
2021/12/21 01:52:26;;;;;;;22.98;9.70;;;0.30;99.90;;;;;;5009222;28;20113;-64
2021/12/21 01:54:54;;;;;;;23.45;9.95;;;0.30;99.90;;;;;;5011347;28;20036;-63
2021/12/21 01:57:20;;;;;;;22.33;10.15;;;0.20;99.90;;;;;;5011191;28;20038;-64
2021/12/21 01:59:47;;;;;;;25.88;11.02;;;0.20;99.90;;;;;;5009861;28;20029;-61
2021/12/21 02:02:15;;;;;;;22.05;9.80;;;0.20;99.90;;;;;;5008639;28;20030;-60
2021/12/21 02:04:41;;;;;;;28.58;10.50;;;0.30;99.90;;;;;;5009819;28;20860;-61
2021/12/21 02:07:08;;;;;;;27.13;10.18;;;0.30;99.90;;;;;;5009827;28;20038;-62
2021/12/21 02:09:40;;;;;;;27.83;10.48;;;0.20;99.90;;;;;;5010067;28;20030;-63
2021/12/21 02:12:17;;;;;;;38.67;11.35;;;0.20;99.90;;;;;;5009567;28;20550;-62
2021/12/21 02:14:48;;;;;;;30.23;10.43;;;0.20;99.90;;;;;;5001169;28;20061;-62
2021/12/21 02:22:44;;;;;;;32.10;11.18;;;0.10;99.90;;;;;;5001929;28;20564;-62
2021/12/21 02:26:03;;;;;;;31.00;10.75;;;0.10;99.90;;;;;;5010796;28;20034;-62
2021/12/21 02:28:23;;;;;;;31.20;10.43;;;0.10;99.90;;;;;;5004821;28;20025;-62
2021/12/21 02:30:53;;;;;;;24.67;11.50;;;0.10;99.90;;;;;;5010824;28;20499;-59
2021/12/21 02:33:21;;;;;;;30.88;12.18;;;0.10;99.90;;;;;;5007608;28;20034;-63
2021/12/21 02:35:46;;;;;;;28.17;10.95;;;0.10;99.90;;;;;;5009204;28;20034;-62
2021/12/21 02:38:12;;;;;;;23.90;11.40;;;0.10;99.90;;;;;;5008603;28;20391;-62
2021/12/21 02:40:39;;;;;;;27.20;10.95;;;0.10;99.90;;;;;;5009237;28;20177;-63
2021/12/21 02:43:06;;;;;;;29.17;11.55;;;0.10;99.90;;;;;;5007637;28;20034;-62
2021/12/21 02:45:32;;;;;;;30.63;12.60;;;0.00;99.90;;;;;;5008970;28;20034;-63
2021/12/21 02:47:58;;;;;;;30.48;12.43;;;0.00;99.90;;;;;;5008828;28;20080;-63
2021/12/21 02:50:24;;;;;;;30.38;12.27;;;0.00;99.90;;;;;;5008759;28;20034;-62
2021/12/21 02:52:51;;;;;;;34.03;13.85;;;0.00;99.90;;;;;;5008661;28;20116;-63
2021/12/21 02:55:17;;;;;;;34.30;12.95;;;0.00;99.90;;;;;;5008827;28;20026;-62
2021/12/21 02:57:43;;;;;;;32.28;12.60;;;0.00;99.90;;;;;;5007840;28;20472;-64
2021/12/21 03:00:10;;;;;;;27.55;11.45;;;0.10;99.90;;;;;;5007635;28;20065;-63
2021/12/21 03:02:36;;;;;;;26.60;11.07;;;0.10;99.90;;;;;;5007732;28;20113;-62
2021/12/21 03:05:03;;;;;;;32.30;11.10;;;0.10;99.90;;;;;;5003586;28;20189;-63
2021/12/21 03:09:56;;;;;;;29.30;12.13;;;0.10;99.90;;;;;;5009615;28;20129;-63
2021/12/21 03:14:50;;;;;;;21.45;10.02;;;0.00;99.90;;;;;;5001693;28;20026;-62
2021/12/21 03:17:16;;;;;;;24.23;10.00;;;0.00;99.90;;;;;;5009357;28;20040;-63
2021/12/21 03:19:42;;;;;;;24.25;9.90;;;0.00;99.90;;;;;;5008322;28;20456;-63
2021/12/21 03:22:10;;;;;;;21.10;9.18;;;0.00;99.90;;;;;;5008429;28;20526;-63
2021/12/21 03:24:36;;;;;;;21.40;8.57;;;-0.10;99.90;;;;;;5006801;28;20045;-63
2021/12/21 03:27:03;;;;;;;23.70;8.70;;;0.00;99.90;;;;;;5008359;28;20030;-63
2021/12/21 03:29:29;;;;;;;22.23;9.25;;;0.00;99.90;;;;;;5007880;28;20034;-64
2021/12/21 03:31:55;;;;;;;25.05;8.93;;;0.00;99.90;;;;;;5008345;28;20479;-63
2021/12/21 03:34:21;;;;;;;20.65;9.00;;;0.00;99.90;;;;;;5008635;28;20083;-64
2021/12/21 03:36:47;;;;;;;27.50;9.57;;;0.00;99.90;;;;;;5009371;28;20021;-64
2021/12/21 03:39:20;;;;;;;20.25;9.45;;;0.00;99.90;;;;;;5008389;28;20026;-63
2021/12/21 03:41:55;;;;;;;22.15;8.90;;;0.10;99.90;;;;;;5006243;28;20787;-63
2021/12/21 03:44:21;;;;;;;18.45;9.32;;;-0.10;99.90;;;;;;5007880;28;20065;-62
2021/12/21 03:46:51;;;;;;;27.27;9.90;;;-0.10;99.90;;;;;;5009464;28;20037;-62
2021/12/21 03:52:05;;;;;;;27.33;10.43;;;-0.20;99.90;;;;;;5008087;28;20034;-63
2021/12/21 03:54:31;;;;;;;21.70;10.05;;;-0.20;99.90;;;;;;5006747;28;20537;-63
2021/12/21 03:56:57;;;;;;;21.38;10.32;;;-0.20;99.90;;;;;;5003047;28;20026;-62
2021/12/21 03:59:23;;;;;;;24.60;9.50;;;-0.30;99.90;;;;;;5006721;28;20200;-63
2021/12/21 04:01:49;;;;;;;21.35;9.45;;;-0.20;99.90;;;;;;5006691;28;20105;-62
2021/12/21 04:04:18;;;;;;;26.25;10.15;;;-0.30;99.90;;;;;;5008621;28;20033;-62
2021/12/21 04:06:45;;;;;;;28.75;10.40;;;-0.30;99.90;;;;;;5008316;28;20018;-63
2021/12/21 04:09:11;;;;;;;21.48;10.18;;;-0.30;99.90;;;;;;5007901;28;20717;-63
2021/12/21 04:11:36;;;;;;;21.92;9.45;;;-0.30;99.90;;;;;;5007394;28;20116;-63
2021/12/21 04:14:02;;;;;;;27.50;10.35;;;-0.20;99.90;;;;;;5007867;28;20026;-62
2021/12/21 04:16:29;;;;;;;20.98;9.65;;;-0.20;99.90;;;;;;5007663;28;20049;-62
2021/12/21 04:18:54;;;;;;;18.60;9.35;;;-0.10;99.90;;;;;;5010232;28;20025;-63
2021/12/21 04:21:20;;;;;;;24.08;9.32;;;0.00;99.90;;;;;;5010964;28;20038;-63
2021/12/21 04:23:46;;;;;;;23.83;9.32;;;-0.10;99.90;;;;;;5010695;28;20034;-63
2021/12/21 04:26:13;;;;;;;19.85;9.75;;;-0.10;99.90;;;;;;5012226;28;20427;-63
2021/12/21 04:28:39;;;;;;;24.25;9.88;;;-0.10;99.90;;;;;;5011421;28;20033;-64
2021/12/21 04:31:06;;;;;;;20.45;10.00;;;-0.10;99.90;;;;;;5011735;28;20030;-63
2021/12/21 04:33:33;;;;;;;25.00;9.93;;;-0.10;99.90;;;;;;5009876;28;20161;-63
2021/12/21 04:35:59;;;;;;;20.27;9.68;;;-0.20;99.90;;;;;;5012587;28;20025;-63
2021/12/21 04:38:31;;;;;;;22.02;10.48;;;-0.20;99.90;;;;;;5011498;28;20030;-63
2021/12/21 04:41:05;;;;;;;27.00;10.82;;;-0.10;99.90;;;;;;5006772;28;20029;-63
2021/12/21 04:43:30;;;;;;;20.42;9.60;;;-0.20;99.90;;;;;;5009079;28;20044;-63
2021/12/21 04:45:56;;;;;;;44.00;10.32;;;-0.20;99.90;;;;;;5011890;28;20109;-64
2021/12/21 04:48:22;;;;;;;28.15;10.82;;;-0.20;99.90;;;;;;5009859;28;20437;-63
2021/12/21 04:50:48;;;;;;;25.15;11.93;;;-0.10;99.90;;;;;;5010330;28;20045;-64
2021/12/21 04:53:14;;;;;;;27.70;9.88;;;-0.10;99.90;;;;;;5011764;28;20141;-63
2021/12/21 04:55:40;;;;;;;26.75;10.45;;;-0.10;99.90;;;;;;5010465;28;20113;-63
2021/12/21 04:58:06;;;;;;;22.05;9.63;;;-0.10;99.90;;;;;;5011453;28;20026;-64
2021/12/21 05:00:33;;;;;;;18.05;10.48;;;-0.10;99.90;;;;;;5010965;28;20133;-63
2021/12/21 05:02:58;;;;;;;23.42;10.55;;;-0.10;99.90;;;;;;5010908;28;20034;-64
2021/12/21 05:05:24;;;;;;;20.42;11.30;;;-0.20;99.90;;;;;;5009645;28;20056;-63
2021/12/21 05:08:06;;;;;;;28.75;11.85;;;-0.20;99.90;;;;;;5012104;28;20496;-63
2021/12/21 05:10:53;;;;;;;24.92;10.68;;;-0.20;99.90;;;;;;5008786;28;20029;-62
2021/12/21 05:13:21;;;;;;;23.63;10.98;;;-0.30;99.90;;;;;;5008408;28;20030;-63
2021/12/21 05:15:47;;;;;;;19.02;10.63;;;-0.40;99.90;;;;;;5013390;28;20026;-57
2021/12/21 05:18:15;;;;;;;27.25;11.32;;;-0.40;99.90;;;;;;5014370;28;20361;-60
2021/12/21 05:20:41;;;;;;;24.45;11.00;;;-0.40;99.90;;;;;;4996923;28;20325;-61
2021/12/21 05:23:07;;;;;;;22.48;10.60;;;-0.40;99.90;;;;;;5010873;28;20557;-62
2021/12/21 05:25:34;;;;;;;23.98;10.80;;;-0.40;99.90;;;;;;5010145;28;20037;-64
2021/12/21 05:28:00;;;;;;;28.58;10.95;;;-0.40;99.90;;;;;;5010796;28;20026;-62
2021/12/21 05:30:27;;;;;;;22.02;10.75;;;-0.40;99.90;;;;;;5009309;28;20037;-63
2021/12/21 05:32:53;;;;;;;22.42;10.32;;;-0.40;99.90;;;;;;5008308;28;20048;-50
2021/12/21 05:35:19;;;;;;;28.35;10.93;;;-0.50;99.90;;;;;;5010002;28;20053;-63
2021/12/21 05:37:47;;;;;;;20.50;10.65;;;-0.40;99.90;;;;;;5011594;28;20041;-61
2021/12/21 05:40:17;;;;;;;24.88;10.68;;;-0.50;99.90;;;;;;5010756;28;20092;-60
2021/12/21 05:42:45;;;;;;;19.95;9.70;;;-0.50;99.90;;;;;;5008825;28;20033;-61
2021/12/21 05:45:12;;;;;;;23.10;11.13;;;-0.50;99.90;;;;;;5010231;28;20050;-61
2021/12/21 05:47:38;;;;;;;27.33;11.07;;;-0.50;99.90;;;;;;5002151;28;20029;-62
2021/12/21 05:50:08;;;;;;;25.83;10.32;;;-0.50;99.90;;;;;;5010652;28;20026;-63
2021/12/21 05:52:34;;;;;;;29.67;10.93;;;-0.50;99.90;;;;;;5009829;28;20056;-61
2021/12/21 05:55:00;;;;;;;30.73;10.90;;;-0.40;99.90;;;;;;5009640;28;20065;-61
2021/12/21 05:57:25;;;;;;;21.95;9.88;;;-0.40;99.90;;;;;;5010652;28;20080;-60
2021/12/21 05:59:51;;;;;;;25.70;9.77;;;-0.40;99.90;;;;;;5008255;28;20042;-61
2021/12/21 06:02:17;;;;;;;29.33;9.32;;;-0.40;99.90;;;;;;5004299;28;20057;-61
2021/12/21 06:04:43;;;;;;;20.25;9.68;;;-0.40;99.90;;;;;;4999657;28;20076;-61
2021/12/21 06:07:10;;;;;;;21.70;9.50;;;-0.50;99.90;;;;;;5008060;28;20368;-62
2021/12/21 06:09:35;;;;;;;21.63;9.75;;;-0.40;99.90;;;;;;5010151;28;20371;-61
2021/12/21 06:12:14;;;;;;;24.55;9.23;;;-0.50;99.90;;;;;;5007619;28;20038;-62
2021/12/21 06:15:32;;;;;;;22.05;9.15;;;-0.50;99.90;;;;;;5011189;28;20021;-63
2021/12/21 06:25:41;;;;;;;38.53;11.80;;;-0.50;99.90;;;;;;5006419;28;20447;-57
2021/12/21 06:28:12;;;;;;;21.77;10.77;;;-0.50;99.90;;;;;;4996308;28;20038;-56
2021/12/21 06:30:39;;;;;;;17.48;10.70;;;-0.40;99.90;;;;;;5005662;28;20032;-59
2021/12/21 06:33:07;;;;;;;21.08;10.32;;;-0.40;99.90;;;;;;5009648;28;20033;-58
2021/12/21 06:35:33;;;;;;;23.75;11.07;;;-0.40;99.90;;;;;;5007383;28;20471;-59
2021/12/21 06:37:59;;;;;;;26.35;11.32;;;-0.40;99.90;;;;;;5008691;28;20205;-59
2021/12/21 06:40:25;;;;;;;26.90;12.55;;;-0.40;99.90;;;;;;5008417;28;20113;-59
2021/12/21 06:42:53;;;;;;;32.78;13.13;;;-0.40;99.90;;;;;;5000532;28;20388;-60
2021/12/21 06:45:44;;;;;;;21.55;11.55;;;-0.40;99.90;;;;;;5008625;28;20059;-63
2021/12/21 06:51:58;;;;;;;27.02;13.02;;;-0.40;99.90;;;;;;5004999;28;20029;-59
2021/12/21 06:53:56;;;;;;;46.08;13.68;;;-0.40;99.90;;;;;;4995663;28;20042;-59
2021/12/21 06:56:22;;;;;;;35.35;14.23;;;-0.50;99.90;;;;;;5011475;28;20503;-61
2021/12/21 06:58:49;;;;;;;26.33;12.60;;;-0.60;99.90;;;;;;5012562;28;20088;-62
2021/12/21 07:01:16;;;;;;;28.70;13.88;;;-0.60;99.90;;;;;;5012217;28;20038;-60
2021/12/21 07:03:43;;;;;;;27.33;14.13;;;-0.60;99.90;;;;;;5007555;28;20026;-61
2021/12/21 07:06:10;;;;;;;36.10;15.38;;;-0.60;99.90;;;;;;5009030;28;20062;-60
2021/12/21 07:08:46;;;;;;;28.45;14.60;;;-0.70;99.90;;;;;;5011808;28;20026;-61
2021/12/21 07:11:30;;;;;;;31.30;16.70;;;-0.70;99.90;;;;;;5014709;28;20030;-59
2021/12/21 07:19:25;;;;;;;28.98;15.32;;;-0.50;99.90;;;;;;5003160;28;20053;-60
2021/12/21 07:21:51;;;;;;;28.55;14.50;;;-0.50;99.90;;;;;;5011607;28;20621;-60
2021/12/21 07:24:17;;;;;;;30.58;16.90;;;-0.60;99.90;;;;;;5012114;28;20042;-60
2021/12/21 07:26:42;;;;;;;29.90;14.75;;;-0.60;99.90;;;;;;5013039;28;20045;-61
2021/12/21 07:29:08;;;;;;;31.25;14.68;;;-0.60;99.90;;;;;;5013176;28;20044;-62
2021/12/21 07:31:34;;;;;;;33.70;15.38;;;-0.60;99.90;;;;;;5011922;28;20052;-62
2021/12/21 07:34:00;;;;;;;30.00;15.88;;;-0.60;99.90;;;;;;5012889;28;20044;-59
2021/12/21 07:36:26;;;;;;;30.08;15.43;;;-0.70;99.90;;;;;;5014424;28;20042;-60
2021/12/21 07:38:52;;;;;;;32.97;15.90;;;-0.70;99.90;;;;;;5011218;28;20136;-61
2021/12/21 07:41:18;;;;;;;30.73;14.80;;;-0.70;99.90;;;;;;5011518;28;20038;-62
2021/12/21 07:43:43;;;;;;;26.67;14.80;;;-0.70;99.90;;;;;;5008937;28;20041;-58
2021/12/21 07:46:09;;;;;;;27.35;15.35;;;-0.70;99.90;;;;;;5009861;28;20421;-58
2021/12/21 07:48:35;;;;;;;32.97;15.68;;;-0.80;99.90;;;;;;5003919;28;20034;-62
2021/12/21 07:51:01;;;;;;;30.35;14.70;;;-0.70;99.90;;;;;;5025369;28;20034;-62
2021/12/21 07:53:27;;;;;;;37.40;16.48;;;-0.70;99.90;;;;;;5008986;28;20466;-63
2021/12/21 07:55:53;;;;;;;32.35;15.68;;;-0.60;99.90;;;;;;5015240;28;20034;-62
2021/12/21 07:58:19;;;;;;;30.60;15.40;;;-0.60;99.90;;;;;;4996895;28;20533;-63
2021/12/21 08:00:45;;;;;;;30.98;14.65;;;-0.70;99.90;;;;;;5013730;28;20026;-62
2021/12/21 08:03:14;;;;;;;45.78;16.38;;;-0.60;99.90;;;;;;5014545;28;20107;-63
2021/12/21 08:05:40;;;;;;;39.45;17.25;;;-0.60;99.90;;;;;;5003213;28;20439;-63
2021/12/21 08:08:17;;;;;;;36.53;16.50;;;-0.60;99.90;;;;;;5012035;28;20031;-62
2021/12/21 08:10:52;;;;;;;41.25;16.77;;;-0.60;99.90;;;;;;5013492;28;20026;-62
2021/12/21 08:13:17;;;;;;;41.80;17.92;;;-0.60;99.90;;;;;;5012825;28;20037;-59
2021/12/21 08:15:44;;;;;;;40.28;18.88;;;-0.60;99.90;;;;;;5013232;28;20034;-62
2021/12/21 08:18:10;;;;;;;38.85;18.25;;;-0.60;99.90;;;;;;5013748;28;20038;-63
2021/12/21 08:20:36;;;;;;;36.65;17.85;;;-0.70;99.90;;;;;;5013786;28;20441;-63
2021/12/21 08:23:02;;;;;;;40.30;18.73;;;-0.60;99.90;;;;;;5008971;28;20044;-63
2021/12/21 08:25:28;;;;;;;37.13;17.08;;;-0.60;99.90;;;;;;5013897;28;20104;-63
2021/12/21 08:27:57;;;;;;;40.55;19.30;;;-0.60;99.90;;;;;;5014631;28;20034;-61
2021/12/21 08:30:24;;;;;;;42.42;18.75;;;-0.60;99.90;;;;;;5013537;28;20033;-64
2021/12/21 08:32:50;;;;;;;39.47;18.83;;;-0.50;99.90;;;;;;5014835;28;20040;-63
2021/12/21 08:35:16;;;;;;;44.58;20.10;;;-0.50;99.90;;;;;;5014129;28;20030;-61
2021/12/21 08:37:49;;;;;;;45.03;19.85;;;-0.50;99.90;;;;;;5012043;28;20399;-64
2021/12/21 08:40:15;;;;;;;44.47;19.20;;;-0.50;99.90;;;;;;5014984;28;20026;-61
2021/12/21 08:42:44;;;;;;;37.33;19.10;;;-0.50;99.90;;;;;;5013800;28;20183;-62
2021/12/21 08:45:10;;;;;;;37.28;18.85;;;-0.40;99.90;;;;;;5014325;28;20392;-61
2021/12/21 08:47:36;;;;;;;39.63;18.80;;;-0.40;99.90;;;;;;5014773;28;20117;-62
2021/12/21 08:50:06;;;;;;;35.28;18.50;;;-0.40;99.90;;;;;;5013437;28;20037;-61
2021/12/21 08:52:32;;;;;;;41.88;17.88;;;-0.40;99.90;;;;;;5013674;28;20033;-63
2021/12/21 08:54:58;;;;;;;43.40;18.40;;;-0.30;99.90;;;;;;5014567;28;20053;-61
2021/12/21 08:57:23;;;;;;;36.20;17.50;;;-0.20;99.90;;;;;;5012627;28;20472;-61
2021/12/21 08:59:49;;;;;;;35.03;17.45;;;-0.10;99.90;;;;;;5014592;28;20037;-61
2021/12/21 09:02:15;;;;;;;36.22;16.67;;;0.00;99.90;;;;;;5013375;28;20092;-63
2021/12/21 09:04:41;;;;;;;34.65;16.98;;;0.20;99.90;;;;;;5011696;28;20038;-63
2021/12/21 09:07:07;;;;;;;39.50;16.70;;;0.30;99.90;;;;;;5011589;28;20034;-64
2021/12/21 09:09:33;;;;;;;34.72;15.82;;;0.50;99.90;;;;;;5010809;28;20029;-62
2021/12/21 09:11:58;;;;;;;29.75;15.05;;;0.60;99.90;;;;;;5010318;28;20026;-62
2021/12/21 09:14:25;;;;;;;39.05;16.00;;;0.70;99.90;;;;;;5010814;28;20404;-62
2021/12/21 09:16:51;;;;;;;27.55;14.18;;;0.80;99.90;;;;;;5010741;28;20037;-63
2021/12/21 09:19:17;;;;;;;38.83;13.90;;;0.90;99.90;;;;;;5012531;28;20037;-63
2021/12/21 09:21:43;;;;;;;29.65;12.85;;;1.10;99.90;;;;;;5012379;28;20026;-54
2021/12/21 09:24:09;;;;;;;25.67;13.50;;;1.30;99.90;;;;;;5015113;28;20037;-58
2021/12/21 09:26:35;;;;;;;26.35;13.00;;;1.30;99.90;;;;;;5003320;28;20026;-54
2021/12/21 09:29:02;;;;;;;21.85;11.13;;;1.30;99.90;;;;;;5014131;28;20107;-54
2021/12/21 09:31:28;;;;;;;29.27;11.50;;;1.40;99.90;;;;;;5010552;28;20039;-55
2021/12/21 09:33:53;;;;;;;23.67;11.30;;;1.30;99.90;;;;;;5010445;28;20033;-56
2021/12/21 09:36:19;;;;;;;26.80;12.68;;;1.40;99.90;;;;;;5011337;28;20068;-58
2021/12/21 09:38:45;;;;;;;28.70;11.77;;;1.40;99.90;;;;;;5011962;28;20038;-58
2021/12/21 09:41:12;;;;;;;22.17;11.45;;;1.50;99.90;;;;;;5008065;28;20053;-53
2021/12/21 09:43:40;;;;;;;24.13;11.73;;;1.50;99.90;;;;;;5006261;28;20038;-55
2021/12/21 09:46:07;;;;;;;23.33;10.57;;;1.60;99.90;;;;;;5011226;28;20088;-57
2021/12/21 09:48:33;;;;;;;21.98;10.80;;;1.60;99.90;;;;;;5010900;28;20518;-58
2021/12/21 09:51:00;;;;;;;26.77;10.95;;;1.60;99.90;;;;;;5010748;28;20092;-59
2021/12/21 09:53:26;;;;;;;26.60;11.55;;;1.60;99.90;;;;;;5010306;28;20037;-59
2021/12/21 09:55:52;;;;;;;40.45;12.70;;;1.60;99.90;;;;;;5010840;28;20038;-58
2021/12/21 09:58:18;;;;;;;27.58;11.98;;;1.60;99.90;;;;;;5010717;28;20044;-59
2021/12/21 10:00:44;;;;;;;28.65;12.20;;;1.70;99.90;;;;;;5007375;28;20084;-58
2021/12/21 10:03:10;;;;;;;23.98;11.80;;;1.70;99.90;;;;;;5009944;28;20098;-58
2021/12/21 10:05:41;;;;;;;24.58;11.85;;;1.70;99.90;;;;;;5003112;28;20030;-59
2021/12/21 10:08:19;;;;;;;28.67;12.38;;;1.70;99.90;;;;;;5008657;28;20022;-60
2021/12/21 10:10:51;;;;;;;31.70;12.90;;;1.60;99.90;;;;;;4994680;28;20034;-56
2021/12/21 10:13:22;;;;;;;20.85;10.40;;;1.60;99.90;;;;;;5007958;28;20028;-57
2021/12/21 10:15:57;;;;;;;23.55;9.70;;;1.60;99.90;;;;;;5007994;28;20029;-57
2021/12/21 10:18:27;;;;;;;21.23;9.20;;;1.70;99.90;;;;;;5009774;28;20033;-57
2021/12/21 10:20:55;;;;;;;23.27;10.60;;;1.70;99.90;;;;;;5003087;28;20026;-57
2021/12/21 10:23:33;;;;;;;29.90;10.63;;;1.70;99.90;;;;;;4999230;28;20029;-52
2021/12/21 10:26:02;;;;;;;30.73;12.20;;;1.70;99.90;;;;;;5006624;28;20037;-55
2021/12/21 10:28:40;;;;;;;29.63;12.38;;;1.70;99.90;;;;;;5011327;28;20504;-51
2021/12/21 10:31:10;;;;;;;23.92;11.43;;;1.80;99.90;;;;;;5011895;28;20505;-52
2021/12/21 10:33:38;;;;;;;26.27;11.75;;;1.90;99.90;;;;;;5024095;28;20045;-57
2021/12/21 10:36:07;;;;;;;33.58;11.52;;;1.90;99.90;;;;;;5031001;28;20037;-54
2021/12/21 10:38:35;;;;;;;26.13;11.07;;;1.80;99.90;;;;;;5013052;28;20040;-55
2021/12/21 10:41:26;;;;;;;24.90;10.30;;;1.90;99.90;;;;;;5009896;28;20030;-54
2021/12/21 10:44:13;;;;;;;21.40;9.90;;;1.90;99.90;;;;;;5003257;28;20034;-56
2021/12/21 10:46:41;;;;;;;26.75;9.88;;;1.90;99.90;;;;;;4997587;28;20475;-56
2021/12/21 10:49:18;;;;;;;20.23;8.93;;;2.00;99.90;;;;;;5011866;28;20036;-56
2021/12/21 10:52:07;;;;;;;18.92;9.27;;;2.00;99.90;;;;;;5009221;28;20054;-53
2021/12/21 10:54:46;;;;;;;29.95;11.98;;;2.00;99.90;;;;;;5009345;28;20575;-56
2021/12/21 10:57:31;;;;;;;22.95;9.02;;;2.00;99.90;;;;;;5008221;28;20030;-56
2021/12/21 11:00:00;;;;;;;26.33;10.77;;;2.00;99.90;;;;;;5011775;28;20455;-56
2021/12/21 11:02:32;;;;;;;22.17;9.57;;;2.10;99.90;;;;;;5012490;28;20030;-55
2021/12/21 11:05:08;;;;;;;23.02;8.80;;;2.20;99.90;;;;;;5013518;28;20061;-54
2021/12/21 11:10:09;;;;;;;19.48;9.40;;;2.20;99.90;;;;;;5012086;28;20041;-55
2021/12/21 11:12:52;;;;;;;25.08;9.95;;;2.20;99.90;;;;;;5011151;28;20679;-58
2021/12/21 11:15:21;;;;;;;;;;;2.30;99.90;;;;;;4998340;28;20030;-56
2021/12/21 11:17:48;;;;;;;22.80;8.93;;;2.20;99.90;;;;;;5010166;28;19909;-55
2021/12/21 11:20:15;;;;;;;21.65;9.65;;;2.30;99.90;;;;;;5010286;28;20092;-58
2021/12/21 11:22:43;;;;;;;20.45;10.18;;;2.30;99.90;;;;;;5008459;28;20054;-56
2021/12/21 11:25:10;;;;;;;20.77;10.15;;;2.20;99.90;;;;;;5008468;28;20030;-52
2021/12/21 11:27:38;;;;;;;24.50;10.88;;;2.20;99.90;;;;;;5007978;28;20121;-54
2021/12/21 11:30:11;;;;;;;23.13;9.63;;;2.30;99.90;;;;;;5011723;28;20037;-56
2021/12/21 11:32:42;;;;;;;20.10;10.35;;;2.30;99.90;;;;;;5008746;28;20113;-63
2021/12/21 11:37:43;;;;;;;26.92;10.23;;;2.40;99.90;;;;;;5008866;28;20026;-62
2021/12/21 11:40:12;;;;;;;25.00;9.57;;;2.50;99.90;;;;;;5010867;28;20506;-53
2021/12/21 11:42:51;;;;;;;20.42;9.55;;;2.40;99.90;;;;;;5004964;28;20542;-58
2021/12/21 11:45:27;;;;;;;26.23;9.25;;;2.60;99.90;;;;;;5008629;28;20029;-57
2021/12/21 11:48:02;;;;;;;25.55;9.73;;;2.70;99.90;;;;;;5011234;28;20033;-56
2021/12/21 11:50:28;;;;;;;24.80;9.45;;;2.70;99.90;;;;;;5011904;28;20045;-55
2021/12/21 11:53:00;;;;;;;28.50;12.48;;;2.70;99.90;;;;;;5004480;28;20030;-58
2021/12/21 11:55:28;;;;;;;32.15;11.68;;;2.70;99.90;;;;;;5009015;28;20025;-55
2021/12/21 11:57:58;;;;;;;25.23;11.00;;;2.70;99.90;;;;;;5008362;28;20424;-52
2021/12/21 12:00:27;;;;;;;28.10;10.17;;;2.80;99.90;;;;;;5009316;28;20057;-49
2021/12/21 12:02:54;;;;;;;27.85;11.50;;;2.70;99.90;;;;;;5007361;28;20025;-48
2021/12/21 12:05:23;;;;;;;30.33;11.18;;;2.70;99.90;;;;;;5007972;28;20115;-49
2021/12/21 12:07:59;;;;;;;23.08;10.10;;;2.70;99.90;;;;;;5010550;28;20338;-48
2021/12/21 12:10:25;;;;;;;19.60;9.88;;;2.80;99.90;;;;;;5004974;28;20025;-50
2021/12/21 12:12:51;;;;;;;26.60;10.32;;;2.80;99.90;;;;;;4997962;28;20026;-51
2021/12/21 12:15:17;;;;;;;30.35;13.55;;;2.80;99.90;;;;;;5008920;28;20061;-48
2021/12/21 12:17:48;;;;;;;25.80;12.30;;;2.80;99.90;;;;;;5005571;28;20105;-54
2021/12/21 12:20:15;;;;;;;27.67;11.05;;;2.80;99.90;;;;;;5003447;28;20109;-53
2021/12/21 12:22:44;;;;;;;24.30;11.43;;;2.80;99.90;;;;;;5007356;28;20033;-52
2021/12/21 12:25:23;;;;;;;25.15;11.30;;;2.80;99.90;;;;;;5009419;28;20034;-54
2021/12/21 12:27:51;;;;;;;27.83;12.27;;;2.80;99.90;;;;;;4998118;28;20038;-55
2021/12/21 12:30:26;;;;;;;25.73;10.10;;;2.80;99.90;;;;;;5009289;28;20041;-56
2021/12/21 12:33:02;;;;;;;18.98;8.75;;;2.80;99.90;;;;;;5006973;28;20050;-49
2021/12/21 12:35:32;;;;;;;24.35;9.88;;;2.80;99.90;;;;;;5006218;28;20112;-51
2021/12/21 12:38:12;;;;;;;24.67;10.70;;;2.80;99.90;;;;;;5005354;28;21936;-52
2021/12/21 12:41:01;;;;;;;27.20;10.05;;;2.90;99.90;;;;;;5008260;28;20033;-54
2021/12/21 12:43:29;;;;;;;30.17;12.00;;;2.70;99.90;;;;;;5009999;28;20037;-48
2021/12/21 12:46:03;;;;;;;24.67;9.77;;;2.80;99.90;;;;;;5009847;28;20061;-49
2021/12/21 12:48:42;;;;;;;27.27;9.50;;;2.80;99.90;;;;;;5010821;28;20421;-50
2021/12/21 12:51:10;;;;;;;15.57;8.27;;;2.80;99.90;;;;;;5012078;28;20030;-52
2021/12/21 12:53:39;;;;;;;29.00;11.27;;;2.80;99.90;;;;;;5011386;28;20021;-57
2021/12/21 12:56:06;;;;;;;24.27;10.00;;;2.90;99.90;;;;;;5012091;28;20099;-50
2021/12/21 12:58:35;;;;;;;18.73;6.55;;;2.90;99.90;;;;;;5010699;28;20045;-53
2021/12/21 13:01:19;;;;;;;15.68;6.60;;;2.80;99.90;;;;;;5007050;28;20038;-49
2021/12/21 13:03:45;;;;;;;17.80;6.95;;;2.70;99.90;;;;;;5005071;28;20030;-50
2021/12/21 13:06:20;;;;;;;16.48;7.45;;;2.70;99.90;;;;;;5012381;28;20392;-51
2021/12/21 13:08:46;;;;;;;17.80;7.15;;;2.60;99.90;;;;;;5012495;28;20203;-50
2021/12/21 13:11:18;;;;;;;25.83;8.55;;;2.60;99.90;;;;;;5012416;28;20026;-54
2021/12/21 13:13:46;;;;;;;15.15;5.95;;;2.60;99.90;;;;;;5011342;28;20057;-53
2021/12/21 13:16:13;;;;;;;19.52;6.47;;;2.60;99.90;;;;;;5010847;28;20064;-52
2021/12/21 13:18:51;;;;;;;20.92;7.00;;;2.60;99.90;;;;;;5004545;28;20053;-50
2021/12/21 13:21:33;;;;;;;22.88;6.25;;;2.60;99.90;;;;;;4992871;28;20031;-52
2021/12/21 13:24:17;;;;;;;19.60;6.70;;;2.50;99.90;;;;;;5007477;28;20053;-51
2021/12/21 13:26:48;;;;;;;14.48;5.30;;;2.50;99.90;;;;;;5011287;28;20034;-51
2021/12/21 13:29:18;;;;;;;18.10;6.13;;;2.50;99.90;;;;;;5012119;28;20049;-49
2021/12/21 13:31:50;;;;;;;20.63;5.90;;;2.50;99.90;;;;;;5011513;28;20050;-52
2021/12/21 13:34:17;;;;;;;16.25;5.03;;;2.50;99.90;;;;;;5011880;28;20109;-50
2021/12/21 13:36:45;;;;;;;15.43;5.25;;;2.50;99.90;;;;;;5010986;28;20033;-52
2021/12/21 13:39:30;;;;;;;23.15;5.50;;;2.50;99.90;;;;;;5006795;28;20031;-53
2021/12/21 13:42:00;;;;;;;17.67;6.28;;;2.50;99.90;;;;;;5003655;28;20034;-53
2021/12/21 13:44:52;;;;;;;24.05;7.70;;;2.50;99.90;;;;;;5011141;28;20042;-50
2021/12/21 13:47:31;;;;;;;16.20;6.35;;;2.40;99.90;;;;;;5009675;28;20046;-53
2021/12/21 13:50:08;;;;;;;20.95;7.30;;;2.40;99.90;;;;;;5011427;28;20578;-52
2021/12/21 13:52:44;;;;;;;14.55;6.68;;;2.40;99.90;;;;;;4998389;28;20506;-50
2021/12/21 13:55:27;;;;;;;20.35;7.13;;;2.40;99.90;;;;;;4996055;28;20023;-50
2021/12/21 13:57:53;;;;;;;;;;;2.50;99.90;;;;;;5011977;28;20033;-49